»·PEaware :: DAL1613 KSFO-KPDX

DAL1613 :: KSFO-KPDX

FLIGHT INFORMATION

Flight Status: Arrived
Operator:
Delta Air Lines
More flights by this operator :: More flights under this callsign
Pilot: Clay B. (17061)
Aircraft: BOEING 737-300
(B733)
More flights by this aircraft type
Origin: KSFO San Francisco Intl
United States
Destination: KPDX Portland Intl
United States
More flights between these airports :: More routes between these airports
Route: TRUKN2 GRTFL MACHU TMBRS2
File this flight plan on PilotEdge
Remarks: PBN / A1B3B4B5D3D4 DOF / 171219 REG / N372SB EET / KZSE0036 OPR / DAL PER / C RMK / TCAS SIMBRIEF
Altitude:
(Current/Filed)
34,000ft
Speed:
(Current/Filed)
436kts
Departed: 18-Dec-17 08:46 PM
Arrived: 18-Dec-17 10:18 PM
Distance/Time
Traveled:
478nm/1:31
Distance/Time
To Go:
Arrived

Flight Plot

Page will automatically refresh every two minutes.


Map Options




Map Legend


Flown Route
Filed Route
Departure Airport
Arrival Airport
Navaid (VOR, NDB)
Fix

Horizontal Profiles

Position Reports

Time Latitude Longitude Heading Altitude Ground
Speed
18-Dec-17 20:34 37.612663 -122.384666 6 30ft 0kts
18-Dec-17 20:35 37.612663 -122.384666 6 30ft 0kts
18-Dec-17 20:36 37.612663 -122.384666 6 30ft 0kts
18-Dec-17 20:37 37.612663 -122.384666 6 30ft 0kts
18-Dec-17 20:38 37.612663 -122.384666 6 30ft 0kts
18-Dec-17 20:39 37.612663 -122.384666 6 30ft 0kts
18-Dec-17 20:40 37.612430 -122.384687 5 30ft 2kts
18-Dec-17 20:41 37.611847 -122.384747 4 30ft 2kts
18-Dec-17 20:42 37.611324 -122.384807 47 30ft 1kts
18-Dec-17 20:43 37.611291 -122.384935 75 30ft 0kts
18-Dec-17 20:44 37.611291 -122.384935 75 30ft 0kts
18-Dec-17 20:45 37.611291 -122.384935 75 30ft 0kts
18-Dec-17 20:46 37.611291 -122.384935 75 30ft 0kts
18-Dec-17 20:47 37.610991 -122.384094 182 30ft 10kts
18-Dec-17 20:48 37.610066 -122.383933 55 30ft 3kts
18-Dec-17 20:49 37.610600 -122.382845 175 30ft 11kts
18-Dec-17 20:50 37.609127 -122.383402 147 30ft 0kts
18-Dec-17 20:51 37.608895 -122.383021 114 29ft 8kts
18-Dec-17 20:52 37.624101 -122.372655 26 117ft 157kts
18-Dec-17 20:53 37.653880 -122.329683 51 2179ft 187kts
18-Dec-17 20:54 37.690433 -122.268060 56 3967ft 252kts
18-Dec-17 20:55 37.742635 -122.215870 359 6784ft 265kts
18-Dec-17 20:56 37.816765 -122.217198 357 9491ft 276kts
18-Dec-17 20:57 37.900344 -122.219321 357 10761ft 337kts
18-Dec-17 20:58 37.995003 -122.221792 357 13246ft 352kts
18-Dec-17 20:59 38.093549 -122.224371 356 15615ft 362kts
18-Dec-17 21:00 38.191358 -122.226960 356 17691ft 373kts
18-Dec-17 21:01 38.295660 -122.229727 356 19703ft 383kts
18-Dec-17 21:02 38.402046 -122.236394 352 21574ft 390kts
18-Dec-17 21:03 38.510476 -122.247751 352 23265ft 399kts
18-Dec-17 21:04 38.621472 -122.259281 352 24832ft 407kts
18-Dec-17 21:05 38.734400 -122.271044 352 26270ft 414kts
18-Dec-17 21:06 38.849429 -122.283065 352 27586ft 421kts
18-Dec-17 21:07 38.965077 -122.295178 352 29185ft 417kts
18-Dec-17 21:08 39.079869 -122.307255 352 30553ft 415kts
18-Dec-17 21:09 39.190216 -122.318848 352 31833ft 411kts
18-Dec-17 21:10 39.302942 -122.330774 352 33011ft 407kts
18-Dec-17 21:11 39.415165 -122.342697 352 33791ft 408kts
18-Dec-17 21:12 39.527455 -122.354657 352 34261ft 409kts
18-Dec-17 21:13 39.639883 -122.366674 352 34249ft 407kts
18-Dec-17 21:14 39.752602 -122.378759 352 34251ft 408kts
18-Dec-17 21:15 39.864940 -122.390845 352 34250ft 408kts
18-Dec-17 21:16 39.977023 -122.402940 352 34258ft 408kts
18-Dec-17 21:17 40.089604 -122.415131 352 34262ft 407kts
18-Dec-17 21:18 40.180863 -122.425004 352 34262ft 408kts
18-Dec-17 21:19 40.293292 -122.437250 352 34252ft 408kts
18-Dec-17 21:20 40.424305 -122.451565 352 34249ft 408kts
18-Dec-17 21:21 40.518076 -122.461847 352 34251ft 408kts
18-Dec-17 21:22 40.648735 -122.476235 352 34250ft 408kts
18-Dec-17 21:23 40.742253 -122.486568 352 34250ft 408kts
18-Dec-17 21:24 40.873538 -122.501114 352 34250ft 408kts
18-Dec-17 21:25 40.967086 -122.511503 352 34250ft 408kts
18-Dec-17 21:26 41.079456 -122.524051 351 34244ft 408kts
18-Dec-17 21:27 41.188229 -122.536171 350 34247ft 409kts
18-Dec-17 21:28 41.301090 -122.548838 350 34241ft 408kts
18-Dec-17 21:29 41.413586 -122.561517 350 34241ft 408kts
18-Dec-17 21:30 41.526332 -122.574203 351 34241ft 409kts
18-Dec-17 21:31 41.639297 -122.582490 352 34241ft 409kts
18-Dec-17 21:32 41.752270 -122.589843 352 34241ft 410kts
18-Dec-17 21:33 41.865418 -122.597202 352 34242ft 410kts
18-Dec-17 21:34 41.978780 -122.604641 352 34241ft 410kts
18-Dec-17 21:35 42.092265 -122.612094 352 34240ft 409kts
18-Dec-17 21:36 42.204107 -122.619537 352 34243ft 410kts
18-Dec-17 21:37 42.317087 -122.627110 352 34241ft 409kts
18-Dec-17 21:38 42.430416 -122.634660 352 34240ft 409kts
18-Dec-17 21:39 42.543417 -122.642218 352 34240ft 410kts
18-Dec-17 21:40 42.656897 -122.649832 352 34240ft 409kts
18-Dec-17 21:41 42.769131 -122.657654 351 34240ft 409kts
18-Dec-17 21:42 42.882080 -122.665407 351 34241ft 409kts
18-Dec-17 21:43 42.995238 -122.673191 350 34236ft 410kts
18-Dec-17 21:44 43.108473 -122.680915 349 34213ft 413kts
18-Dec-17 21:45 43.221327 -122.688562 349 34205ft 412kts
18-Dec-17 21:46 43.335265 -122.696379 349 34204ft 412kts
18-Dec-17 21:47 43.449477 -122.704351 349 34206ft 412kts
18-Dec-17 21:48 43.563250 -122.712222 349 34200ft 412kts
18-Dec-17 21:49 43.677052 -122.720079 349 34173ft 412kts
18-Dec-17 21:50 43.790961 -122.727973 349 34167ft 412kts
18-Dec-17 21:51 43.904542 -122.735872 349 34166ft 412kts
18-Dec-17 21:52 44.017923 -122.743788 349 34167ft 412kts
18-Dec-17 21:53 44.130226 -122.751637 349 34137ft 412kts
18-Dec-17 21:54 44.242859 -122.744159 356 34169ft 419kts
18-Dec-17 21:55 44.358138 -122.732646 355 34166ft 419kts
18-Dec-17 21:56 44.459743 -122.722585 355 34155ft 419kts
18-Dec-17 21:57 44.575061 -122.711124 355 34143ft 419kts
18-Dec-17 21:58 44.684010 -122.700156 355 34127ft 382kts
18-Dec-17 21:59 44.792362 -122.689380 355 33045ft 399kts
18-Dec-17 22:00 44.897915 -122.678718 355 30638ft 391kts
18-Dec-17 22:01 45.002789 -122.668164 355 28235ft 395kts
18-Dec-17 22:02 45.105554 -122.612451 44 25792ft 461kts
18-Dec-17 22:03 45.143090 -122.461084 75 23629ft 472kts
18-Dec-17 22:04 45.163997 -122.329975 75 21787ft 465kts
18-Dec-17 22:05 45.188522 -122.181374 75 19688ft 453kts
18-Dec-17 22:06 45.223891 -122.015007 51 17196ft 433kts
18-Dec-17 22:07 45.311883 -121.960840 340 15188ft 365kts
18-Dec-17 22:08 45.401920 -122.000531 335 14988ft 341kts
18-Dec-17 22:09 45.473006 -122.076557 305 13320ft 326kts
18-Dec-17 22:10 45.529722 -122.172683 305 11089ft 304kts
18-Dec-17 22:11 45.576632 -122.254985 306 9926ft 259kts
18-Dec-17 22:12 45.595401 -122.348283 275 7728ft 255kts
18-Dec-17 22:13 45.599581 -122.446294 276 6044ft 246kts
18-Dec-17 22:14 45.615565 -122.533471 315 6000ft 244kts
18-Dec-17 22:15 45.665779 -122.604170 316 5978ft 267kts
18-Dec-17 22:16 45.720151 -122.675997 315 4899ft 273kts
18-Dec-17 22:17 45.750204 -122.759941 245 3403ft 248kts
18-Dec-17 22:18 45.708740 -122.826436 225 2996ft 213kts
18-Dec-17 22:19 45.664326 -122.832752 112 3011ft 189kts
18-Dec-17 22:20 45.650114 -122.764714 112 2321ft 175kts
18-Dec-17 22:21 45.630936 -122.713274 119 1508ft 132kts
18-Dec-17 22:22 45.614069 -122.670395 120 852ft 124kts
18-Dec-17 22:23 45.597734 -122.627922 120 182ft 122kts
18-Dec-17 22:24 45.587838 -122.600932 90 36ft 4kts
18-Dec-17 22:25 45.588151 -122.599030 74 36ft 13kts
18-Dec-17 22:26 45.588856 -122.597385 28 36ft 1kts
18-Dec-17 22:27 45.588815 -122.597418 28 36ft 0kts
18-Dec-17 22:28 45.588815 -122.597418 28 36ft 0kts
18-Dec-17 22:29 45.588815 -122.597418 28 36ft 0kts

Navigation Log

Ident Type
1. KSFO Airport
2. KPDX Airport